createdAt,value
2023-05-15T00:00:40.216Z,0.00
2023-05-15T00:01:40.189Z,0.00
2023-05-15T00:02:40.299Z,0.00
2023-05-15T00:03:40.240Z,0.00
2023-05-15T00:04:40.228Z,0.00
2023-05-15T00:05:40.133Z,0.00
2023-05-15T00:06:40.119Z,0.00
2023-05-15T00:07:40.105Z,0.00
2023-05-15T00:08:40.094Z,0.00
2023-05-15T00:09:40.087Z,0.00
2023-05-15T00:10:44.911Z,0.00
2023-05-15T00:11:40.068Z,0.00
2023-05-15T00:12:40.052Z,0.00
2023-05-15T00:13:40.041Z,0.00
2023-05-15T00:14:40.041Z,0.00
2023-05-15T00:15:40.184Z,0.00
2023-05-15T00:16:40.166Z,0.00
2023-05-15T00:17:40.051Z,0.00
2023-05-15T00:18:40.001Z,0.00
2023-05-15T00:19:39.970Z,0.00
2023-05-15T00:20:39.939Z,0.00
2023-05-15T00:21:39.931Z,0.00
2023-05-15T00:22:39.925Z,0.00
2023-05-15T00:23:39.905Z,0.00
2023-05-15T00:24:39.887Z,0.00
2023-05-15T00:25:39.879Z,0.00
2023-05-15T00:26:39.861Z,0.00
2023-05-15T00:27:39.852Z,0.00
2023-05-15T00:28:39.834Z,0.00
2023-05-15T00:29:39.820Z,0.00
2023-05-15T00:30:39.809Z,0.00
2023-05-15T00:31:39.886Z,0.00
2023-05-15T00:32:39.851Z,0.00
2023-05-15T00:33:39.770Z,0.00
2023-05-15T00:34:39.758Z,0.00
2023-05-15T00:35:39.747Z,0.00
2023-05-15T00:36:39.747Z,0.00
2023-05-15T00:37:39.721Z,0.00
2023-05-15T00:38:39.709Z,0.00
2023-05-15T00:39:39.720Z,0.00
2023-05-15T00:40:39.683Z,0.00
2023-05-15T00:41:39.672Z,0.00
2023-05-15T00:42:39.656Z,0.00
2023-05-15T00:43:39.642Z,0.00
2023-05-15T00:44:39.631Z,0.00
2023-05-15T00:45:39.616Z,0.00
2023-05-15T00:46:39.630Z,0.00
2023-05-15T00:47:39.624Z,0.00
2023-05-15T00:48:39.580Z,0.00
2023-05-15T00:49:39.563Z,0.00
2023-05-15T00:50:39.553Z,0.00
2023-05-15T00:51:39.547Z,0.00
2023-05-15T00:52:39.528Z,0.00
2023-05-15T00:53:39.549Z,0.00
2023-05-15T00:54:39.513Z,0.00
2023-05-15T00:55:39.494Z,0.00
2023-05-15T00:56:39.485Z,0.00
2023-05-15T00:57:39.459Z,0.00
2023-05-15T00:58:39.462Z,0.00
2023-05-15T00:59:39.463Z,0.00
2023-05-15T01:00:39.499Z,0.00
2023-05-15T01:01:39.417Z,0.00
2023-05-15T01:02:39.504Z,0.00
2023-05-15T01:03:39.469Z,0.00
2023-05-15T01:04:39.373Z,0.00
2023-05-15T01:05:39.360Z,0.00
2023-05-15T01:06:39.346Z,0.00
2023-05-15T01:07:39.332Z,0.00
2023-05-15T01:08:39.316Z,0.00
2023-05-15T01:09:39.307Z,0.00
2023-05-15T01:10:39.292Z,0.00
2023-05-15T01:11:39.281Z,0.00
2023-05-15T01:12:39.268Z,0.00
2023-05-15T01:13:39.258Z,0.00
2023-05-15T01:14:39.238Z,0.00
2023-05-15T01:15:39.227Z,0.00
2023-05-15T01:16:39.214Z,0.00
2023-05-15T01:17:39.236Z,0.00
2023-05-15T01:18:39.243Z,0.00
2023-05-15T01:19:39.340Z,0.00
2023-05-15T01:20:39.159Z,0.00
2023-05-15T01:21:39.141Z,0.00
2023-05-15T01:22:39.142Z,0.00
2023-05-15T01:23:39.117Z,0.00
2023-05-15T01:24:39.118Z,0.00
2023-05-15T01:25:39.091Z,0.00
2023-05-15T01:26:39.077Z,0.00
2023-05-15T01:27:39.075Z,0.00
2023-05-15T01:28:39.056Z,0.00
2023-05-15T01:29:39.055Z,0.00
2023-05-15T01:30:39.027Z,0.00
2023-05-15T01:31:39.040Z,0.00
2023-05-15T01:32:39.078Z,0.00
2023-05-15T01:33:39.001Z,0.00
2023-05-15T01:34:38.970Z,0.00
2023-05-15T01:35:38.984Z,0.00
2023-05-15T01:36:38.949Z,0.00
2023-05-15T01:37:38.934Z,0.00
2023-05-15T01:38:38.918Z,0.00
2023-05-15T01:39:38.902Z,0.00
2023-05-15T01:40:38.892Z,0.00
2023-05-15T01:41:38.878Z,0.00
2023-05-15T01:42:38.864Z,0.00
2023-05-15T01:43:38.849Z,0.00
2023-05-15T01:44:38.836Z,0.00
2023-05-15T01:45:38.822Z,0.00
2023-05-15T01:46:38.823Z,0.00
2023-05-15T01:47:38.880Z,0.00
2023-05-15T01:48:38.789Z,0.00
2023-05-15T01:49:38.774Z,0.00
2023-05-15T01:50:38.758Z,0.00
2023-05-15T01:51:38.774Z,0.00
2023-05-15T01:52:38.737Z,0.00
2023-05-15T01:53:38.725Z,0.00
2023-05-15T01:54:38.703Z,0.00
2023-05-15T01:55:38.692Z,0.00
2023-05-15T01:56:38.678Z,0.00
2023-05-15T01:57:38.671Z,0.00
2023-05-15T01:58:38.653Z,0.00
2023-05-15T01:59:38.645Z,0.00
2023-05-15T02:00:38.622Z,0.00
2023-05-15T02:01:38.652Z,0.00
2023-05-15T02:02:38.801Z,0.00
2023-05-15T02:03:38.658Z,0.00
2023-05-15T02:04:38.580Z,0.00
2023-05-15T02:05:38.557Z,0.00
2023-05-15T02:06:38.546Z,0.00
2023-05-15T02:07:38.563Z,0.00
2023-05-15T02:08:38.525Z,0.00
2023-05-15T02:09:38.510Z,0.00
2023-05-15T02:10:38.496Z,0.00
2023-05-15T02:12:38.480Z,0.00
2023-05-15T02:13:38.449Z,0.00
2023-05-15T02:14:38.446Z,0.00
2023-05-15T02:15:38.431Z,0.00
2023-05-15T02:16:38.452Z,0.00
2023-05-15T02:17:38.442Z,0.00
2023-05-15T02:18:38.410Z,0.00
2023-05-15T02:19:38.374Z,0.00
2023-05-15T02:20:38.368Z,0.00
2023-05-15T02:21:38.350Z,0.00
2023-05-15T02:22:38.372Z,0.00
2023-05-15T02:23:38.350Z,0.00
2023-05-15T02:24:38.321Z,0.00
2023-05-15T02:25:38.302Z,0.00
2023-05-15T02:26:38.284Z,0.00
2023-05-15T02:27:38.273Z,0.00
2023-05-15T02:28:38.272Z,0.00
2023-05-15T02:29:38.245Z,0.00
2023-05-15T02:30:38.249Z,0.00
2023-05-15T02:31:38.288Z,0.00
2023-05-15T02:32:38.227Z,0.00
2023-05-15T02:33:38.203Z,0.00
2023-05-15T02:34:38.181Z,0.00
2023-05-15T02:35:38.177Z,0.00
2023-05-15T02:36:38.164Z,0.00
2023-05-15T02:37:38.148Z,0.00
2023-05-15T02:38:38.129Z,0.00
2023-05-15T02:39:38.139Z,0.00
2023-05-15T02:40:38.106Z,0.00
2023-05-15T02:41:38.090Z,0.00
2023-05-15T02:42:38.078Z,0.00
2023-05-15T02:43:38.067Z,0.00
2023-05-15T02:44:38.053Z,0.00
2023-05-15T02:45:38.094Z,0.00
2023-05-15T02:46:38.030Z,0.00
2023-05-15T02:47:38.057Z,0.00
2023-05-15T02:48:38.022Z,0.00
2023-05-15T02:49:37.996Z,0.00
2023-05-15T02:50:37.980Z,0.00
2023-05-15T02:51:37.973Z,0.00
2023-05-15T02:52:37.950Z,0.00
2023-05-15T02:53:37.940Z,0.00
2023-05-15T02:54:37.926Z,0.00
2023-05-15T02:55:37.941Z,0.00
2023-05-15T02:56:37.904Z,0.00
2023-05-15T02:57:37.893Z,0.00
2023-05-15T02:58:37.876Z,0.00
2023-05-15T02:59:37.865Z,0.00
2023-05-15T03:00:37.850Z,0.00
2023-05-15T03:01:37.972Z,0.00
2023-05-15T03:02:37.846Z,0.00
2023-05-15T03:03:37.812Z,0.00
2023-05-15T03:04:37.914Z,0.00
2023-05-15T03:05:37.790Z,0.00
2023-05-15T03:06:37.775Z,4.00
2023-05-15T03:07:37.767Z,4.00
2023-05-15T03:08:37.759Z,4.00
2023-05-15T03:09:37.748Z,0.00
2023-05-15T03:10:37.735Z,4.00
2023-05-15T03:11:37.740Z,4.00
2023-05-15T03:12:37.694Z,4.00
2023-05-15T03:13:37.687Z,4.00
2023-05-15T03:14:37.681Z,4.00
2023-05-15T03:15:37.691Z,8.00
2023-05-15T03:16:37.714Z,4.00
2023-05-15T03:17:37.771Z,8.00
2023-05-15T03:18:37.668Z,8.00
2023-05-15T03:19:37.620Z,12.00
2023-05-15T03:20:37.598Z,12.00
2023-05-15T03:21:37.591Z,16.00
2023-05-15T03:22:37.578Z,16.00
2023-05-15T03:23:38.015Z,16.00
2023-05-15T03:24:37.548Z,20.00
2023-05-15T03:25:37.535Z,24.00
2023-05-15T03:26:37.544Z,32.00
2023-05-15T03:27:37.551Z,36.00
2023-05-15T03:28:37.498Z,40.00
2023-05-15T03:29:37.487Z,48.00
2023-05-15T03:30:37.471Z,52.00
2023-05-15T03:31:37.526Z,64.00
2023-05-15T03:32:37.473Z,68.00
2023-05-15T03:33:37.436Z,80.00
2023-05-15T03:34:38.734Z,88.00
2023-05-15T03:35:37.433Z,100.00
2023-05-15T03:36:37.394Z,112.00
2023-05-15T03:37:37.394Z,120.00
2023-05-15T03:38:37.366Z,132.00
2023-05-15T03:39:37.357Z,140.00
2023-05-15T03:40:37.368Z,152.00
2023-05-15T03:41:37.332Z,164.00
2023-05-15T03:42:37.322Z,180.00
2023-05-15T03:43:37.338Z,200.00
2023-05-15T03:44:37.291Z,220.00
2023-05-15T03:45:37.297Z,248.00
2023-05-15T03:46:37.331Z,272.00
2023-05-15T03:47:37.281Z,304.00
2023-05-15T03:48:37.240Z,340.00
2023-05-15T03:49:37.227Z,388.00
2023-05-15T03:50:37.213Z,424.00
2023-05-15T03:51:37.200Z,448.00
2023-05-15T03:52:37.838Z,468.00
2023-05-15T03:53:37.180Z,492.00
2023-05-15T03:54:37.174Z,516.00
2023-05-15T03:55:37.160Z,520.00
2023-05-15T03:56:37.139Z,512.00
2023-05-15T03:57:37.125Z,508.00
2023-05-15T03:58:37.127Z,532.00
2023-05-15T03:59:37.127Z,540.00
2023-05-15T04:00:37.088Z,576.00
2023-05-15T04:01:44.233Z,580.00
2023-05-15T04:02:37.199Z,612.00
2023-05-15T04:03:37.196Z,636.00
2023-05-15T04:04:37.034Z,640.00
2023-05-15T04:05:37.106Z,664.00
2023-05-15T04:06:37.013Z,680.00
2023-05-15T04:07:37.020Z,724.00
2023-05-15T04:08:37.281Z,724.00
2023-05-15T04:09:36.982Z,768.00
2023-05-15T04:10:36.965Z,796.00
2023-05-15T04:11:36.954Z,812.00
2023-05-15T04:12:36.953Z,840.00
2023-05-15T04:13:36.922Z,812.00
2023-05-15T04:14:36.908Z,888.00
2023-05-15T04:15:36.919Z,924.00
2023-05-15T04:16:36.913Z,968.00
2023-05-15T04:17:36.911Z,1024.00
2023-05-15T04:18:36.923Z,1040.00
2023-05-15T04:19:36.848Z,1016.00
2023-05-15T04:20:36.829Z,1016.00
2023-05-15T04:21:36.825Z,1016.00
2023-05-15T04:22:36.803Z,1080.00
2023-05-15T04:23:36.796Z,1152.00
2023-05-15T04:24:36.776Z,1320.00
2023-05-15T04:25:36.763Z,1516.00
2023-05-15T04:26:36.816Z,1704.00
2023-05-15T04:27:36.738Z,1816.00
2023-05-15T04:28:36.722Z,1908.00
2023-05-15T04:29:36.737Z,2024.00
2023-05-15T04:30:36.692Z,2120.00
2023-05-15T04:31:36.715Z,2208.00
2023-05-15T04:32:36.698Z,2304.00
2023-05-15T04:33:36.657Z,2444.00
2023-05-15T04:34:36.643Z,2524.00
2023-05-15T04:35:36.629Z,2692.00
2023-05-15T04:36:36.617Z,2884.00
2023-05-15T04:37:36.605Z,2988.00
2023-05-15T04:38:36.608Z,3092.00
2023-05-15T04:39:36.576Z,3204.00
2023-05-15T04:40:36.562Z,3320.00
2023-05-15T04:41:36.555Z,3444.00
2023-05-15T04:42:37.662Z,3544.00
2023-05-15T04:43:36.520Z,3620.00
2023-05-15T04:44:36.509Z,3712.00
2023-05-15T04:45:36.499Z,3824.00
2023-05-15T04:46:36.659Z,3940.00
2023-05-15T04:47:36.663Z,4040.00
2023-05-15T04:48:36.457Z,4136.00
2023-05-15T04:49:36.446Z,4236.00
2023-05-15T04:50:36.432Z,4336.00
2023-05-15T04:51:36.425Z,4404.00
2023-05-15T04:52:36.405Z,4380.00
2023-05-15T04:53:36.396Z,4240.00
2023-05-15T04:54:36.377Z,4068.00
2023-05-15T04:55:36.384Z,4092.00
2023-05-15T04:56:36.354Z,4240.00
2023-05-15T04:57:36.345Z,4488.00
2023-05-15T04:58:36.328Z,5012.00
2023-05-15T04:59:36.318Z,4908.00
2023-05-15T05:00:36.305Z,4728.00
2023-05-15T05:01:36.315Z,4816.00
2023-05-15T05:02:36.313Z,4928.00
2023-05-15T05:03:36.345Z,4852.00
2023-05-15T05:04:36.251Z,4980.00
2023-05-15T05:05:36.240Z,5052.00
2023-05-15T05:06:36.242Z,4956.00
2023-05-15T05:07:36.247Z,5016.00
2023-05-15T05:08:36.205Z,4648.00
2023-05-15T05:09:36.196Z,4764.00
2023-05-15T05:10:36.198Z,4748.00
2023-05-15T05:11:36.170Z,4096.00
2023-05-15T05:12:36.147Z,4252.00
2023-05-15T05:13:36.140Z,4016.00
2023-05-15T05:14:36.118Z,3572.00
2023-05-15T05:15:36.125Z,3372.00
2023-05-15T05:16:36.129Z,3164.00
2023-05-15T05:17:36.131Z,3424.00
2023-05-15T05:18:36.112Z,3548.00
2023-05-15T05:19:36.081Z,3324.00
2023-05-15T05:20:36.052Z,3128.00
2023-05-15T05:21:36.038Z,3240.00
2023-05-15T05:22:36.021Z,3504.00
2023-05-15T05:23:36.012Z,3180.00
2023-05-15T05:24:35.993Z,3260.00
2023-05-15T05:25:35.990Z,3504.00
2023-05-15T05:26:35.971Z,3684.00
2023-05-15T05:27:35.953Z,3696.00
2023-05-15T05:28:35.944Z,3848.00
2023-05-15T05:29:35.934Z,4180.00
2023-05-15T05:30:35.917Z,4368.00
2023-05-15T05:31:35.930Z,4396.00
2023-05-15T05:32:35.954Z,4756.00
2023-05-15T05:33:35.885Z,4656.00
2023-05-15T05:34:35.885Z,4660.00
2023-05-15T05:35:35.998Z,4812.00
2023-05-15T05:36:35.843Z,4876.00
2023-05-15T05:37:36.697Z,5320.00
2023-05-15T05:38:35.814Z,5676.00
2023-05-15T05:39:35.806Z,5224.00
2023-05-15T05:40:35.786Z,5528.00
2023-05-15T05:41:35.777Z,5372.00
2023-05-15T05:42:35.764Z,5296.00
2023-05-15T05:43:35.762Z,5336.00
2023-05-15T05:44:35.737Z,5488.00
2023-05-15T05:45:35.731Z,5936.00
2023-05-15T05:46:35.865Z,5696.00
2023-05-15T05:47:35.731Z,5360.00
2023-05-15T05:48:35.684Z,5852.00
2023-05-15T05:49:35.690Z,5836.00
2023-05-15T05:50:35.658Z,5604.00
2023-05-15T05:51:35.678Z,6080.00
2023-05-15T05:52:35.646Z,6336.00
2023-05-15T05:53:37.519Z,6392.00
2023-05-15T05:54:35.605Z,6888.00
2023-05-15T05:55:35.603Z,6168.00
2023-05-15T05:56:35.590Z,5812.00
2023-05-15T05:57:35.567Z,6404.00
2023-05-15T05:58:35.552Z,6832.00
2023-05-15T05:59:35.542Z,7028.00
2023-05-15T06:00:35.527Z,7232.00
2023-05-15T06:01:35.512Z,8608.00
2023-05-15T06:02:35.606Z,8376.00
2023-05-15T06:03:35.705Z,7464.00
2023-05-15T06:04:35.552Z,8112.00
2023-05-15T06:05:35.473Z,8832.00
2023-05-15T06:06:35.451Z,8792.00
2023-05-15T06:07:35.456Z,9576.00
2023-05-15T06:08:35.418Z,10352.00
2023-05-15T06:09:35.410Z,11696.00
2023-05-15T06:10:35.397Z,10880.00
2023-05-15T06:11:35.387Z,12940.00
2023-05-15T06:12:35.367Z,14308.00
2023-05-15T06:13:35.355Z,13480.00
2023-05-15T06:14:35.344Z,13020.00
2023-05-15T06:15:35.347Z,11976.00
2023-05-15T06:16:35.403Z,13264.00
2023-05-15T06:17:35.337Z,13432.00
2023-05-15T06:18:35.337Z,13772.00
2023-05-15T06:19:35.274Z,12804.00
2023-05-15T06:20:35.267Z,13440.00
2023-05-15T06:21:35.253Z,13756.00
2023-05-15T06:22:35.245Z,11220.00
2023-05-15T06:23:35.307Z,12360.00
2023-05-15T06:24:35.213Z,13884.00
2023-05-15T06:25:35.203Z,13212.00
2023-05-15T06:26:35.194Z,11888.00
2023-05-15T06:27:35.183Z,11288.00
2023-05-15T06:28:35.163Z,11024.00
2023-05-15T06:29:35.152Z,11220.00
2023-05-15T06:30:35.182Z,11148.00
2023-05-15T06:31:35.127Z,10636.00
2023-05-15T06:32:35.134Z,16864.00
2023-05-15T06:33:35.107Z,15680.00
2023-05-15T06:34:35.089Z,13236.00
2023-05-15T06:35:35.077Z,15904.00
2023-05-15T06:36:35.062Z,12724.00
2023-05-15T06:37:35.054Z,11604.00
2023-05-15T06:38:35.044Z,10132.00
2023-05-15T06:39:35.054Z,9792.00
2023-05-15T06:40:35.026Z,9200.00
2023-05-15T06:41:34.999Z,13852.00
2023-05-15T06:42:34.988Z,9924.00
2023-05-15T06:43:36.367Z,9140.00
2023-05-15T06:44:34.980Z,8816.00
2023-05-15T06:45:34.949Z,8944.00
2023-05-15T06:46:35.023Z,9892.00
2023-05-15T06:47:34.941Z,10932.00
2023-05-15T06:48:34.910Z,10768.00
2023-05-15T06:49:34.905Z,10964.00
2023-05-15T06:50:34.897Z,11088.00
2023-05-15T06:51:34.873Z,11912.00
2023-05-15T06:52:34.858Z,12416.00
2023-05-15T06:53:34.849Z,12780.00
2023-05-15T06:54:34.852Z,14088.00
2023-05-15T06:55:34.853Z,15440.00
2023-05-15T06:56:34.800Z,15780.00
2023-05-15T06:57:34.799Z,14792.00
2023-05-15T06:58:34.777Z,19680.00
2023-05-15T06:59:34.763Z,20800.00
2023-05-15T07:00:34.751Z,16800.00
2023-05-15T07:01:34.809Z,16992.00
2023-05-15T07:02:34.747Z,17248.00
2023-05-15T07:03:34.713Z,19008.00
2023-05-15T07:04:34.734Z,18976.00
2023-05-15T07:05:34.680Z,16960.00
2023-05-15T07:06:34.672Z,16768.00
2023-05-15T07:07:34.660Z,17568.00
2023-05-15T07:08:34.646Z,16396.00
2023-05-15T07:09:34.631Z,17984.00
2023-05-15T07:10:34.625Z,29248.00
2023-05-15T07:11:34.680Z,27264.00
2023-05-15T07:12:34.605Z,28576.00
2023-05-15T07:13:34.580Z,30496.00
2023-05-15T07:14:34.580Z,31200.00
2023-05-15T07:15:34.554Z,20192.00
2023-05-15T07:16:34.548Z,18176.00
2023-05-15T07:17:34.637Z,18464.00
2023-05-15T07:18:34.603Z,21984.00
2023-05-15T07:19:34.608Z,24640.00
2023-05-15T07:20:35.274Z,30784.00
2023-05-15T07:21:34.489Z,21568.00
2023-05-15T07:22:38.737Z,25056.00
2023-05-15T07:23:34.467Z,33216.00
2023-05-15T07:24:34.461Z,33632.00
2023-05-15T07:25:34.434Z,36512.00
2023-05-15T07:26:43.572Z,37632.00
2023-05-15T07:27:34.439Z,38848.00
2023-05-15T07:28:34.402Z,38272.00
2023-05-15T07:29:34.388Z,37568.00
2023-05-15T07:30:34.362Z,39072.00
2023-05-15T07:31:34.425Z,37504.00
2023-05-15T07:32:34.417Z,36608.00
2023-05-15T07:33:34.324Z,38624.00
2023-05-15T07:34:34.312Z,32704.00
2023-05-15T07:35:34.299Z,24320.00
2023-05-15T07:36:34.290Z,22432.00
2023-05-15T07:37:34.281Z,22528.00
2023-05-15T07:38:34.265Z,28512.00
2023-05-15T07:39:34.265Z,26112.00
2023-05-15T07:40:34.238Z,22496.00
2023-05-15T07:41:34.428Z,21088.00
2023-05-15T07:42:34.224Z,19296.00
2023-05-15T07:43:34.430Z,17536.00
2023-05-15T07:44:34.184Z,17728.00
2023-05-15T07:45:34.224Z,23008.00
2023-05-15T07:46:34.195Z,20064.00
2023-05-15T07:47:34.190Z,18752.00
2023-05-15T07:48:34.136Z,18816.00
2023-05-15T07:49:34.123Z,20288.00
2023-05-15T07:50:34.113Z,24448.00
2023-05-15T07:51:34.104Z,25792.00
2023-05-15T07:52:34.090Z,33824.00
2023-05-15T07:53:34.070Z,31168.00
2023-05-15T07:54:34.064Z,21792.00
2023-05-15T07:55:34.047Z,18848.00
2023-05-15T07:56:34.034Z,17536.00
2023-05-15T07:57:34.022Z,17408.00
2023-05-15T07:58:34.014Z,17504.00
2023-05-15T07:59:34.091Z,18272.00
2023-05-15T08:00:33.992Z,19264.00
2023-05-15T08:01:33.971Z,20032.00
2023-05-15T08:02:34.001Z,20736.00
2023-05-15T08:03:34.049Z,20608.00
2023-05-15T08:04:34.056Z,18592.00
2023-05-15T08:05:33.921Z,17184.00
2023-05-15T08:06:33.913Z,16672.00
2023-05-15T08:07:33.893Z,16896.00
2023-05-15T08:08:33.912Z,17376.00
2023-05-15T08:09:33.868Z,17952.00
2023-05-15T08:10:33.857Z,18912.00
2023-05-15T08:11:33.844Z,20384.00
2023-05-15T08:12:33.842Z,22016.00
2023-05-15T08:13:33.819Z,24768.00
2023-05-15T08:14:33.834Z,23808.00
2023-05-15T08:15:33.881Z,23168.00
2023-05-15T08:16:33.905Z,24608.00
2023-05-15T08:17:33.774Z,45920.00
2023-05-15T08:18:33.774Z,46976.00
2023-05-15T08:19:33.746Z,48032.00
2023-05-15T08:20:33.736Z,50304.00
2023-05-15T08:21:33.717Z,47552.00
2023-05-15T08:22:33.709Z,43616.00
2023-05-15T08:23:33.690Z,24896.00
2023-05-15T08:24:33.702Z,29664.00
2023-05-15T08:25:33.671Z,24896.00
2023-05-15T08:26:33.658Z,19712.00
2023-05-15T08:27:33.646Z,35552.00
2023-05-15T08:28:33.633Z,17504.00
2023-05-15T08:29:33.618Z,17664.00
2023-05-15T08:30:33.626Z,32288.00
2023-05-15T08:31:33.659Z,18112.00
2023-05-15T08:32:33.628Z,13716.00
2023-05-15T08:33:33.568Z,13492.00
2023-05-15T08:34:33.564Z,12760.00
2023-05-15T08:35:33.572Z,12048.00
2023-05-15T08:36:33.532Z,11444.00
2023-05-15T08:37:33.538Z,10732.00
2023-05-15T08:38:33.517Z,10576.00
2023-05-15T08:39:33.500Z,10428.00
2023-05-15T08:40:39.014Z,10056.00
2023-05-15T08:42:34.400Z,10844.00
2023-05-15T08:43:33.440Z,11848.00
2023-05-15T08:44:33.426Z,12612.00
2023-05-15T08:45:33.425Z,13648.00
2023-05-15T08:46:33.428Z,14424.00
2023-05-15T08:47:33.432Z,15704.00
2023-05-15T08:48:33.445Z,17312.00
2023-05-15T08:49:33.364Z,18944.00
2023-05-15T08:50:33.353Z,20288.00
2023-05-15T08:51:33.341Z,20320.00
2023-05-15T08:52:33.336Z,21056.00
2023-05-15T08:53:33.316Z,24064.00
2023-05-15T08:54:33.305Z,28800.00
2023-05-15T08:55:33.298Z,28640.00
2023-05-15T08:56:33.280Z,26336.00
2023-05-15T08:57:33.273Z,20352.00
2023-05-15T08:58:33.258Z,15984.00
2023-05-15T08:59:33.239Z,15892.00
2023-05-15T09:00:33.223Z,16896.00
2023-05-15T09:01:33.231Z,18880.00
2023-05-15T09:02:33.262Z,20384.00
2023-05-15T09:03:33.272Z,18208.00
2023-05-15T09:04:33.179Z,18016.00
2023-05-15T09:05:33.165Z,18528.00
2023-05-15T09:06:33.153Z,20704.00
2023-05-15T09:07:33.162Z,28224.00
2023-05-15T09:08:33.128Z,56032.00
2023-05-15T09:09:33.115Z,57152.00
2023-05-15T09:10:33.104Z,55200.00
2023-05-15T09:11:33.100Z,51776.00
2023-05-15T09:12:33.081Z,28096.00
2023-05-15T09:13:33.067Z,28672.00
2023-05-15T09:14:33.057Z,30176.00
2023-05-15T09:15:33.038Z,36192.00
2023-05-15T09:16:33.070Z,24608.00
2023-05-15T09:17:33.052Z,42368.00
2023-05-15T09:18:33.080Z,50176.00
2023-05-15T09:19:33.055Z,30752.00
2023-05-15T09:20:32.975Z,29824.00
2023-05-15T09:21:32.967Z,26240.00
2023-05-15T09:22:32.956Z,25376.00
2023-05-15T09:23:32.941Z,54848.00
2023-05-15T09:24:32.930Z,33856.00
2023-05-15T09:25:32.922Z,29120.00
2023-05-15T09:26:32.901Z,54080.00
2023-05-15T09:27:32.889Z,54464.00
2023-05-15T09:28:32.928Z,56768.00
2023-05-15T09:29:32.861Z,42304.00
2023-05-15T09:30:38.873Z,36256.00
2023-05-15T09:31:32.862Z,28160.00
2023-05-15T09:32:32.909Z,25088.00
2023-05-15T09:33:32.847Z,24192.00
2023-05-15T09:34:32.805Z,23680.00
2023-05-15T09:35:32.907Z,23456.00
2023-05-15T09:36:32.792Z,22144.00
2023-05-15T09:37:32.777Z,20480.00
2023-05-15T09:38:32.765Z,19648.00
2023-05-15T09:39:32.748Z,20064.00
2023-05-15T09:40:32.736Z,20704.00
2023-05-15T09:41:32.720Z,21472.00
2023-05-15T09:42:32.698Z,24480.00
2023-05-15T09:43:32.688Z,25824.00
2023-05-15T09:44:32.675Z,23936.00
2023-05-15T09:45:32.667Z,22784.00
2023-05-15T09:46:32.723Z,22752.00
2023-05-15T09:47:32.806Z,23808.00
2023-05-15T09:48:32.660Z,26144.00
2023-05-15T09:49:33.402Z,24960.00
2023-05-15T09:50:32.602Z,29056.00
2023-05-15T09:51:32.612Z,26720.00
2023-05-15T09:52:32.573Z,28480.00
2023-05-15T09:53:32.563Z,25888.00
2023-05-15T09:54:32.556Z,25280.00
2023-05-15T09:55:32.530Z,24352.00
2023-05-15T09:56:32.525Z,24512.00
2023-05-15T09:57:32.509Z,27520.00
2023-05-15T09:58:32.497Z,36800.00
2023-05-15T09:59:32.483Z,35456.00
2023-05-15T10:00:32.789Z,43680.00
2023-05-15T10:01:32.531Z,50656.00
2023-05-15T10:02:32.742Z,37088.00
2023-05-15T10:03:32.427Z,36512.00
2023-05-15T10:04:32.420Z,30688.00
2023-05-15T10:05:42.427Z,49344.00
2023-05-15T10:06:34.392Z,44576.00
2023-05-15T10:07:32.508Z,58304.00
2023-05-15T10:08:32.371Z,58720.00
2023-05-15T10:09:32.366Z,35232.00
2023-05-15T10:10:32.360Z,55904.00
2023-05-15T10:11:32.326Z,52736.00
2023-05-15T10:13:32.302Z,57504.00
2023-05-15T10:14:32.294Z,56544.00
2023-05-15T10:15:32.278Z,45152.00
2023-05-15T10:16:32.346Z,41376.00
2023-05-15T10:17:32.314Z,28256.00
2023-05-15T10:18:32.344Z,35552.00
2023-05-15T10:19:32.223Z,56352.00
2023-05-15T10:20:32.255Z,35104.00
2023-05-15T10:21:32.208Z,49504.00
2023-05-15T10:22:32.196Z,58368.00
2023-05-15T10:23:32.224Z,57888.00
2023-05-15T10:24:32.186Z,54912.00
2023-05-15T10:25:32.153Z,55040.00
2023-05-15T10:26:32.144Z,55968.00
2023-05-15T10:27:32.128Z,54176.00
2023-05-15T10:28:32.123Z,54112.00
2023-05-15T10:29:32.105Z,51360.00
2023-05-15T10:30:32.111Z,40768.00
2023-05-15T10:31:32.134Z,25632.00
2023-05-15T10:32:32.107Z,55456.00
2023-05-15T10:33:32.068Z,58112.00
2023-05-15T10:34:32.048Z,56800.00
2023-05-15T10:35:32.032Z,56608.00
2023-05-15T10:36:32.040Z,59072.00
2023-05-15T10:37:32.010Z,58624.00
2023-05-15T10:38:32.005Z,59424.00
2023-05-15T10:39:32.009Z,59648.00
2023-05-15T10:40:31.980Z,56608.00
2023-05-15T10:41:31.959Z,57600.00
2023-05-15T10:42:31.948Z,53696.00
2023-05-15T10:43:31.959Z,57536.00
2023-05-15T10:44:31.923Z,55744.00
2023-05-15T10:45:31.905Z,53664.00
2023-05-15T10:46:31.943Z,54976.00
2023-05-15T10:47:31.896Z,55136.00
2023-05-15T10:48:31.875Z,56800.00
2023-05-15T10:49:31.868Z,57472.00
2023-05-15T10:50:31.848Z,58208.00
2023-05-15T10:51:31.879Z,55744.00
2023-05-15T10:52:31.825Z,53952.00
2023-05-15T10:53:31.821Z,53216.00
2023-05-15T10:54:31.813Z,54304.00
2023-05-15T10:55:31.824Z,53632.00
2023-05-15T10:56:31.913Z,52512.00
2023-05-15T10:57:31.765Z,54080.00
2023-05-15T10:58:31.754Z,53952.00
2023-05-15T10:59:31.766Z,52160.00
2023-05-15T11:00:31.742Z,51712.00
2023-05-15T11:01:31.865Z,52128.00
2023-05-15T11:02:31.757Z,54400.00
2023-05-15T11:03:41.224Z,54528.00
2023-05-15T11:04:31.709Z,54560.00
2023-05-15T11:05:31.675Z,52864.00
2023-05-15T11:06:31.659Z,53024.00
2023-05-15T11:07:31.642Z,50144.00
2023-05-15T11:08:31.629Z,51776.00
2023-05-15T11:09:31.649Z,50240.00
2023-05-15T11:10:31.609Z,51648.00
2023-05-15T11:11:31.630Z,51008.00
2023-05-15T11:12:31.584Z,49408.00
2023-05-15T11:13:31.570Z,46048.00
2023-05-15T11:14:31.563Z,45888.00
2023-05-15T11:15:31.559Z,48512.00
2023-05-15T11:16:31.567Z,49152.00
2023-05-15T11:17:31.546Z,49824.00
2023-05-15T11:18:31.518Z,49280.00
2023-05-15T11:19:31.500Z,47712.00
2023-05-15T11:20:31.484Z,49408.00
2023-05-15T11:21:31.476Z,50656.00
2023-05-15T11:22:31.461Z,51552.00
2023-05-15T11:23:31.450Z,51520.00
2023-05-15T11:24:31.440Z,52128.00
2023-05-15T11:25:31.424Z,51936.00
2023-05-15T11:26:31.411Z,50976.00
2023-05-15T11:27:31.434Z,51552.00
2023-05-15T11:28:31.728Z,50432.00
2023-05-15T11:29:31.389Z,47936.00
2023-05-15T11:30:31.364Z,27392.00
2023-05-15T11:31:31.418Z,23520.00
2023-05-15T11:32:31.390Z,53216.00
2023-05-15T11:33:31.342Z,47456.00
2023-05-15T11:34:31.317Z,52192.00
2023-05-15T11:35:31.316Z,47296.00
2023-05-15T11:36:31.288Z,29152.00
2023-05-15T11:37:31.275Z,49344.00
2023-05-15T11:38:31.263Z,49728.00
2023-05-15T11:39:31.254Z,50464.00
2023-05-15T11:40:31.242Z,47680.00
2023-05-15T11:41:31.232Z,47744.00
2023-05-15T11:42:31.215Z,28192.00
2023-05-15T11:43:31.233Z,48224.00
2023-05-15T11:44:31.198Z,49088.00
2023-05-15T11:45:31.182Z,48928.00
2023-05-15T11:46:31.193Z,48640.00
2023-05-15T11:47:31.179Z,46912.00
2023-05-15T11:48:31.147Z,47424.00
2023-05-15T11:49:31.133Z,47360.00
2023-05-15T11:50:31.122Z,46720.00
2023-05-15T11:51:31.110Z,46208.00
2023-05-15T11:52:31.092Z,47904.00
2023-05-15T11:53:31.082Z,48064.00
2023-05-15T11:54:31.072Z,47936.00
2023-05-15T11:55:31.056Z,46240.00
2023-05-15T11:56:31.042Z,48000.00
2023-05-15T11:57:31.032Z,48576.00
2023-05-15T11:58:31.017Z,46400.00
2023-05-15T11:59:31.037Z,46304.00
2023-05-15T12:00:30.994Z,20864.00
2023-05-15T12:01:30.985Z,39680.00
2023-05-15T12:02:31.035Z,45824.00
2023-05-15T12:03:31.172Z,45952.00
2023-05-15T12:04:30.981Z,45056.00
2023-05-15T12:05:30.937Z,44480.00
2023-05-15T12:06:30.920Z,44160.00
2023-05-15T12:07:30.916Z,45376.00
2023-05-15T12:08:30.912Z,44896.00
2023-05-15T12:09:30.894Z,45312.00
2023-05-15T12:10:30.892Z,45120.00
2023-05-15T12:11:30.864Z,43232.00
2023-05-15T12:12:30.851Z,42368.00
2023-05-15T12:13:30.850Z,41600.00
2023-05-15T12:14:30.832Z,41952.00
2023-05-15T12:15:30.923Z,40224.00
2023-05-15T12:16:30.850Z,40256.00
2023-05-15T12:17:30.865Z,41216.00
2023-05-15T12:18:30.807Z,39616.00